sensor_id;sensor_type;location;lat;lon;timestamp;temperature;humidity
52075;DHT22;38075;53.172;5.446;2022-08-14T00:00:07;19.20;33.80
52075;DHT22;38075;53.172;5.446;2022-08-14T00:02:34;19.20;35.60
52075;DHT22;38075;53.172;5.446;2022-08-14T00:04:59;19.20;33.80
52075;DHT22;38075;53.172;5.446;2022-08-14T00:07:28;19.10;36.90
52075;DHT22;38075;53.172;5.446;2022-08-14T00:09:53;19.20;39.50
52075;DHT22;38075;53.172;5.446;2022-08-14T00:12:19;19.20;37.50
52075;DHT22;38075;53.172;5.446;2022-08-14T00:14:45;19.20;37.70
52075;DHT22;38075;53.172;5.446;2022-08-14T00:17:11;19.40;37.40
52075;DHT22;38075;53.172;5.446;2022-08-14T00:19:36;19.40;37.30
52075;DHT22;38075;53.172;5.446;2022-08-14T00:22:02;19.40;36.90
52075;DHT22;38075;53.172;5.446;2022-08-14T00:24:28;19.50;36.70
52075;DHT22;38075;53.172;5.446;2022-08-14T00:26:54;19.60;36.90
52075;DHT22;38075;53.172;5.446;2022-08-14T00:29:20;19.60;36.70
52075;DHT22;38075;53.172;5.446;2022-08-14T00:31:46;19.70;37.20
52075;DHT22;38075;53.172;5.446;2022-08-14T00:34:11;19.60;38.10
52075;DHT22;38075;53.172;5.446;2022-08-14T00:36:37;19.50;38.00
52075;DHT22;38075;53.172;5.446;2022-08-14T00:39:03;19.40;40.10
52075;DHT22;38075;53.172;5.446;2022-08-14T00:41:30;19.20;41.80
52075;DHT22;38075;53.172;5.446;2022-08-14T00:43:57;19.00;45.10
52075;DHT22;38075;53.172;5.446;2022-08-14T00:46:23;19.00;46.20
52075;DHT22;38075;53.172;5.446;2022-08-14T00:48:49;18.90;49.40
52075;DHT22;38075;53.172;5.446;2022-08-14T00:51:14;18.90;53.90
52075;DHT22;38075;53.172;5.446;2022-08-14T00:53:40;18.80;57.90
52075;DHT22;38075;53.172;5.446;2022-08-14T00:56:07;18.80;58.10
52075;DHT22;38075;53.172;5.446;2022-08-14T00:58:34;18.80;59.40
52075;DHT22;38075;53.172;5.446;2022-08-14T01:01:10;18.80;62.40
52075;DHT22;38075;53.172;5.446;2022-08-14T01:03:37;18.90;64.30
52075;DHT22;38075;53.172;5.446;2022-08-14T01:06:06;19.00;65.20
52075;DHT22;38075;53.172;5.446;2022-08-14T01:08:34;18.80;66.20
52075;DHT22;38075;53.172;5.446;2022-08-14T01:11:01;18.90;66.70
52075;DHT22;38075;53.172;5.446;2022-08-14T01:13:36;18.70;63.30
52075;DHT22;38075;53.172;5.446;2022-08-14T01:16:07;18.90;66.80
52075;DHT22;38075;53.172;5.446;2022-08-14T01:18:33;18.90;65.60
52075;DHT22;38075;53.172;5.446;2022-08-14T01:21:32;18.90;64.90
52075;DHT22;38075;53.172;5.446;2022-08-14T01:23:58;18.90;66.70
52075;DHT22;38075;53.172;5.446;2022-08-14T01:26:25;18.80;65.00
52075;DHT22;38075;53.172;5.446;2022-08-14T01:28:53;18.80;65.70
52075;DHT22;38075;53.172;5.446;2022-08-14T01:31:25;18.80;66.20
52075;DHT22;38075;53.172;5.446;2022-08-14T01:33:54;18.80;70.70
52075;DHT22;38075;53.172;5.446;2022-08-14T01:36:23;18.60;70.00
52075;DHT22;38075;53.172;5.446;2022-08-14T01:38:50;18.60;73.00
52075;DHT22;38075;53.172;5.446;2022-08-14T01:41:20;18.60;73.00
52075;DHT22;38075;53.172;5.446;2022-08-14T01:46:20;18.50;73.00
52075;DHT22;38075;53.172;5.446;2022-08-14T01:48:46;18.40;73.20
52075;DHT22;38075;53.172;5.446;2022-08-14T01:51:14;18.50;72.40
52075;DHT22;38075;53.172;5.446;2022-08-14T01:53:44;18.40;73.00
52075;DHT22;38075;53.172;5.446;2022-08-14T01:56:13;18.40;72.90
52075;DHT22;38075;53.172;5.446;2022-08-14T01:58:43;18.40;72.80
52075;DHT22;38075;53.172;5.446;2022-08-14T02:01:14;18.40;73.70
52075;DHT22;38075;53.172;5.446;2022-08-14T02:03:40;18.50;72.90
52075;DHT22;38075;53.172;5.446;2022-08-14T02:06:06;18.50;75.90
52075;DHT22;38075;53.172;5.446;2022-08-14T02:08:35;18.30;76.90
52075;DHT22;38075;53.172;5.446;2022-08-14T02:11:03;18.30;72.90
52075;DHT22;38075;53.172;5.446;2022-08-14T02:13:50;18.30;72.90
52075;DHT22;38075;53.172;5.446;2022-08-14T02:16:19;18.20;72.90
52075;DHT22;38075;53.172;5.446;2022-08-14T02:18:45;18.20;72.80
52075;DHT22;38075;53.172;5.446;2022-08-14T02:21:11;18.20;74.60
52075;DHT22;38075;53.172;5.446;2022-08-14T02:23:39;18.30;75.70
52075;DHT22;38075;53.172;5.446;2022-08-14T02:26:17;18.30;82.10
52075;DHT22;38075;53.172;5.446;2022-08-14T02:28:43;18.30;88.40
52075;DHT22;38075;53.172;5.446;2022-08-14T02:31:12;18.30;86.10
52075;DHT22;38075;53.172;5.446;2022-08-14T02:33:38;18.30;89.70
52075;DHT22;38075;53.172;5.446;2022-08-14T02:36:04;18.30;81.80
52075;DHT22;38075;53.172;5.446;2022-08-14T02:38:30;18.20;87.70
52075;DHT22;38075;53.172;5.446;2022-08-14T02:40:57;18.50;83.50
52075;DHT22;38075;53.172;5.446;2022-08-14T02:43:23;18.20;90.90
52075;DHT22;38075;53.172;5.446;2022-08-14T02:45:48;18.20;86.00
52075;DHT22;38075;53.172;5.446;2022-08-14T02:48:14;18.20;84.30
52075;DHT22;38075;53.172;5.446;2022-08-14T02:50:41;18.20;83.00
52075;DHT22;38075;53.172;5.446;2022-08-14T02:53:11;18.30;83.20
52075;DHT22;38075;53.172;5.446;2022-08-14T02:55:37;18.60;83.30
52075;DHT22;38075;53.172;5.446;2022-08-14T02:58:05;18.30;80.60
52075;DHT22;38075;53.172;5.446;2022-08-14T03:00:33;18.30;82.40
52075;DHT22;38075;53.172;5.446;2022-08-14T03:03:03;18.60;87.90
52075;DHT22;38075;53.172;5.446;2022-08-14T03:05:29;18.30;91.00
52075;DHT22;38075;53.172;5.446;2022-08-14T03:08:08;18.30;86.50
52075;DHT22;38075;53.172;5.446;2022-08-14T03:10:37;18.30;90.80
52075;DHT22;38075;53.172;5.446;2022-08-14T03:13:03;18.30;91.20
52075;DHT22;38075;53.172;5.446;2022-08-14T03:15:30;18.10;90.40
52075;DHT22;38075;53.172;5.446;2022-08-14T03:17:58;18.30;92.20
52075;DHT22;38075;53.172;5.446;2022-08-14T03:20:28;18.20;93.30
52075;DHT22;38075;53.172;5.446;2022-08-14T03:22:55;18.20;90.60
52075;DHT22;38075;53.172;5.446;2022-08-14T03:25:25;18.10;89.60
52075;DHT22;38075;53.172;5.446;2022-08-14T03:27:50;18.10;90.20
52075;DHT22;38075;53.172;5.446;2022-08-14T03:30:16;18.00;90.70
52075;DHT22;38075;53.172;5.446;2022-08-14T03:32:41;18.00;91.30
52075;DHT22;38075;53.172;5.446;2022-08-14T03:35:08;18.00;94.20
52075;DHT22;38075;53.172;5.446;2022-08-14T03:37:35;17.90;92.50
52075;DHT22;38075;53.172;5.446;2022-08-14T03:40:02;17.90;91.80
52075;DHT22;38075;53.172;5.446;2022-08-14T03:42:28;17.80;92.70
52075;DHT22;38075;53.172;5.446;2022-08-14T03:44:54;17.80;95.20
52075;DHT22;38075;53.172;5.446;2022-08-14T03:47:19;17.70;98.40
52075;DHT22;38075;53.172;5.446;2022-08-14T03:49:45;17.60;98.30
52075;DHT22;38075;53.172;5.446;2022-08-14T03:52:12;17.90;99.90
52075;DHT22;38075;53.172;5.446;2022-08-14T03:54:38;17.50;99.90
52075;DHT22;38075;53.172;5.446;2022-08-14T03:57:03;17.50;99.90
52075;DHT22;38075;53.172;5.446;2022-08-14T03:59:31;17.50;99.90
52075;DHT22;38075;53.172;5.446;2022-08-14T04:01:56;17.60;99.90
52075;DHT22;38075;53.172;5.446;2022-08-14T04:04:22;17.40;99.90
52075;DHT22;38075;53.172;5.446;2022-08-14T04:06:48;17.40;99.90
52075;DHT22;38075;53.172;5.446;2022-08-14T04:09:16;17.50;99.90
52075;DHT22;38075;53.172;5.446;2022-08-14T04:11:41;17.40;99.90
52075;DHT22;38075;53.172;5.446;2022-08-14T04:14:07;17.40;99.90
52075;DHT22;38075;53.172;5.446;2022-08-14T04:16:33;17.40;99.90
52075;DHT22;38075;53.172;5.446;2022-08-14T04:19:00;17.30;99.90
52075;DHT22;38075;53.172;5.446;2022-08-14T04:21:29;17.30;99.90
52075;DHT22;38075;53.172;5.446;2022-08-14T04:23:57;17.30;99.90
52075;DHT22;38075;53.172;5.446;2022-08-14T04:26:25;17.20;99.90
52075;DHT22;38075;53.172;5.446;2022-08-14T04:28:52;17.30;99.90
52075;DHT22;38075;53.172;5.446;2022-08-14T04:31:20;17.20;99.90
52075;DHT22;38075;53.172;5.446;2022-08-14T04:33:46;17.20;99.90
52075;DHT22;38075;53.172;5.446;2022-08-14T04:36:13;17.20;99.90
52075;DHT22;38075;53.172;5.446;2022-08-14T04:38:38;17.20;99.90
52075;DHT22;38075;53.172;5.446;2022-08-14T04:41:23;17.20;99.90
52075;DHT22;38075;53.172;5.446;2022-08-14T04:44:18;17.30;99.90
52075;DHT22;38075;53.172;5.446;2022-08-14T04:46:43;17.30;99.90
52075;DHT22;38075;53.172;5.446;2022-08-14T04:49:28;17.40;99.90
52075;DHT22;38075;53.172;5.446;2022-08-14T04:51:53;17.70;99.90
52075;DHT22;38075;53.172;5.446;2022-08-14T04:54:20;17.60;99.90
52075;DHT22;38075;53.172;5.446;2022-08-14T04:56:45;17.70;99.90
52075;DHT22;38075;53.172;5.446;2022-08-14T04:59:11;17.80;99.90
52075;DHT22;38075;53.172;5.446;2022-08-14T05:01:40;17.90;99.90
52075;DHT22;38075;53.172;5.446;2022-08-14T05:04:07;18.10;99.90
52075;DHT22;38075;53.172;5.446;2022-08-14T05:06:33;18.20;99.90
52075;DHT22;38075;53.172;5.446;2022-08-14T05:08:59;18.30;99.90
52075;DHT22;38075;53.172;5.446;2022-08-14T05:11:24;18.50;99.90
52075;DHT22;38075;53.172;5.446;2022-08-14T05:13:50;18.50;99.90
52075;DHT22;38075;53.172;5.446;2022-08-14T05:16:15;18.50;99.90
52075;DHT22;38075;53.172;5.446;2022-08-14T05:18:41;18.60;99.90
52075;DHT22;38075;53.172;5.446;2022-08-14T05:21:08;19.00;99.90
52075;DHT22;38075;53.172;5.446;2022-08-14T05:23:37;19.90;99.90
52075;DHT22;38075;53.172;5.446;2022-08-14T05:26:04;20.40;94.20
52075;DHT22;38075;53.172;5.446;2022-08-14T05:28:38;20.50;88.10
52075;DHT22;38075;53.172;5.446;2022-08-14T05:31:05;20.70;83.50
52075;DHT22;38075;53.172;5.446;2022-08-14T05:33:33;20.70;79.40
52075;DHT22;38075;53.172;5.446;2022-08-14T05:36:01;21.00;74.70
52075;DHT22;38075;53.172;5.446;2022-08-14T05:38:29;21.60;74.70
52075;DHT22;38075;53.172;5.446;2022-08-14T05:40:58;22.10;70.50
52075;DHT22;38075;53.172;5.446;2022-08-14T05:43:24;22.30;67.30
52075;DHT22;38075;53.172;5.446;2022-08-14T05:45:50;22.50;63.50
52075;DHT22;38075;53.172;5.446;2022-08-14T05:48:16;22.90;59.50
52075;DHT22;38075;53.172;5.446;2022-08-14T05:50:41;22.70;54.00
52075;DHT22;38075;53.172;5.446;2022-08-14T05:53:07;22.50;53.10
52075;DHT22;38075;53.172;5.446;2022-08-14T05:55:33;22.60;51.40
52075;DHT22;38075;53.172;5.446;2022-08-14T05:58:01;23.10;47.80
52075;DHT22;38075;53.172;5.446;2022-08-14T06:00:34;23.40;43.00
52075;DHT22;38075;53.172;5.446;2022-08-14T06:03:01;23.50;40.20
52075;DHT22;38075;53.172;5.446;2022-08-14T06:05:28;23.70;39.40
52075;DHT22;38075;53.172;5.446;2022-08-14T06:07:53;23.70;38.00
52075;DHT22;38075;53.172;5.446;2022-08-14T06:10:19;23.20;37.90
52075;DHT22;38075;53.172;5.446;2022-08-14T06:12:45;23.30;36.50
52075;DHT22;38075;53.172;5.446;2022-08-14T06:15:11;23.20;37.50
52075;DHT22;38075;53.172;5.446;2022-08-14T06:17:48;23.60;36.40
52075;DHT22;38075;53.172;5.446;2022-08-14T06:20:18;23.50;34.70
52075;DHT22;38075;53.172;5.446;2022-08-14T06:22:45;23.60;36.10
52075;DHT22;38075;53.172;5.446;2022-08-14T06:25:12;23.50;34.10
52075;DHT22;38075;53.172;5.446;2022-08-14T06:27:48;23.20;37.20
52075;DHT22;38075;53.172;5.446;2022-08-14T06:30:16;22.90;38.60
52075;DHT22;38075;53.172;5.446;2022-08-14T06:32:42;22.60;42.20
52075;DHT22;38075;53.172;5.446;2022-08-14T06:35:09;22.70;42.20
52075;DHT22;38075;53.172;5.446;2022-08-14T06:37:52;22.70;42.00
52075;DHT22;38075;53.172;5.446;2022-08-14T06:40:24;22.60;43.80
52075;DHT22;38075;53.172;5.446;2022-08-14T06:42:51;22.60;45.80
52075;DHT22;38075;53.172;5.446;2022-08-14T06:45:16;22.60;43.30
52075;DHT22;38075;53.172;5.446;2022-08-14T06:47:43;23.00;43.70
52075;DHT22;38075;53.172;5.446;2022-08-14T06:50:12;22.90;41.70
52075;DHT22;38075;53.172;5.446;2022-08-14T06:52:39;23.00;40.10
52075;DHT22;38075;53.172;5.446;2022-08-14T06:55:11;23.30;39.40
52075;DHT22;38075;53.172;5.446;2022-08-14T06:57:42;23.20;38.90
52075;DHT22;38075;53.172;5.446;2022-08-14T07:00:21;23.10;37.80
52075;DHT22;38075;53.172;5.446;2022-08-14T07:02:47;23.40;38.40
52075;DHT22;38075;53.172;5.446;2022-08-14T07:05:32;23.50;36.20
52075;DHT22;38075;53.172;5.446;2022-08-14T07:08:29;23.40;35.70
52075;DHT22;38075;53.172;5.446;2022-08-14T07:10:57;23.60;36.30
52075;DHT22;38075;53.172;5.446;2022-08-14T07:13:24;23.70;35.20
52075;DHT22;38075;53.172;5.446;2022-08-14T07:15:52;23.80;35.20
52075;DHT22;38075;53.172;5.446;2022-08-14T07:18:23;23.70;34.00
52075;DHT22;38075;53.172;5.446;2022-08-14T07:20:50;23.90;34.40
52075;DHT22;38075;53.172;5.446;2022-08-14T07:23:17;23.80;33.20
52075;DHT22;38075;53.172;5.446;2022-08-14T07:25:44;24.00;34.20
52075;DHT22;38075;53.172;5.446;2022-08-14T07:28:11;24.10;34.70
52075;DHT22;38075;53.172;5.446;2022-08-14T07:30:37;24.30;34.20
52075;DHT22;38075;53.172;5.446;2022-08-14T07:33:04;24.30;32.40
52075;DHT22;38075;53.172;5.446;2022-08-14T07:35:30;24.30;33.00
52075;DHT22;38075;53.172;5.446;2022-08-14T07:37:56;24.50;33.90
52075;DHT22;38075;53.172;5.446;2022-08-14T07:40:21;24.70;33.30
52075;DHT22;38075;53.172;5.446;2022-08-14T07:42:47;24.60;31.70
52075;DHT22;38075;53.172;5.446;2022-08-14T07:45:12;24.70;31.50
52075;DHT22;38075;53.172;5.446;2022-08-14T07:47:40;24.80;31.10
52075;DHT22;38075;53.172;5.446;2022-08-14T07:50:15;25.10;31.80
52075;DHT22;38075;53.172;5.446;2022-08-14T07:52:46;25.00;29.40
52075;DHT22;38075;53.172;5.446;2022-08-14T07:55:13;25.10;28.70
52075;DHT22;38075;53.172;5.446;2022-08-14T07:57:39;25.40;29.00
52075;DHT22;38075;53.172;5.446;2022-08-14T08:00:11;25.60;28.40
52075;DHT22;38075;53.172;5.446;2022-08-14T08:02:39;25.80;27.30
52075;DHT22;38075;53.172;5.446;2022-08-14T08:05:08;25.80;27.40
52075;DHT22;38075;53.172;5.446;2022-08-14T08:07:34;26.00;27.70
52075;DHT22;38075;53.172;5.446;2022-08-14T08:10:11;25.90;27.30
52075;DHT22;38075;53.172;5.446;2022-08-14T08:12:57;26.00;27.10
52075;DHT22;38075;53.172;5.446;2022-08-14T08:15:24;26.00;27.00
52075;DHT22;38075;53.172;5.446;2022-08-14T08:17:51;26.00;27.30
52075;DHT22;38075;53.172;5.446;2022-08-14T08:20:19;26.00;27.20
52075;DHT22;38075;53.172;5.446;2022-08-14T08:22:47;26.30;26.90
52075;DHT22;38075;53.172;5.446;2022-08-14T08:25:12;26.30;26.40
52075;DHT22;38075;53.172;5.446;2022-08-14T08:27:38;26.50;27.20
52075;DHT22;38075;53.172;5.446;2022-08-14T08:30:07;26.60;26.70
52075;DHT22;38075;53.172;5.446;2022-08-14T08:32:43;26.80;25.90
52075;DHT22;38075;53.172;5.446;2022-08-14T08:35:21;26.90;24.80
52075;DHT22;38075;53.172;5.446;2022-08-14T08:37:48;27.10;24.90
52075;DHT22;38075;53.172;5.446;2022-08-14T08:40:29;27.30;25.10
52075;DHT22;38075;53.172;5.446;2022-08-14T08:42:56;27.40;23.80
52075;DHT22;38075;53.172;5.446;2022-08-14T08:45:22;27.50;24.30
52075;DHT22;38075;53.172;5.446;2022-08-14T08:47:49;27.70;24.60
52075;DHT22;38075;53.172;5.446;2022-08-14T08:52:51;27.70;23.00
52075;DHT22;38075;53.172;5.446;2022-08-14T08:55:36;27.80;22.30
52075;DHT22;38075;53.172;5.446;2022-08-14T08:58:05;27.90;22.80
52075;DHT22;38075;53.172;5.446;2022-08-14T09:00:32;27.80;22.40
52075;DHT22;38075;53.172;5.446;2022-08-14T09:03:09;27.90;22.80
52075;DHT22;38075;53.172;5.446;2022-08-14T09:05:36;28.10;22.90
52075;DHT22;38075;53.172;5.446;2022-08-14T09:08:19;28.20;22.60
52075;DHT22;38075;53.172;5.446;2022-08-14T09:10:45;28.50;22.10
52075;DHT22;38075;53.172;5.446;2022-08-14T09:13:15;28.50;21.40
52075;DHT22;38075;53.172;5.446;2022-08-14T09:15:43;28.60;20.60
52075;DHT22;38075;53.172;5.446;2022-08-14T09:18:11;28.80;21.20
52075;DHT22;38075;53.172;5.446;2022-08-14T09:20:42;28.30;18.90
52075;DHT22;38075;53.172;5.446;2022-08-14T09:23:09;28.50;19.70
52075;DHT22;38075;53.172;5.446;2022-08-14T09:25:36;28.60;18.50
52075;DHT22;38075;53.172;5.446;2022-08-14T09:28:04;28.60;19.10
52075;DHT22;38075;53.172;5.446;2022-08-14T09:30:31;28.50;18.10
52075;DHT22;38075;53.172;5.446;2022-08-14T09:35:48;29.00;18.90
52075;DHT22;38075;53.172;5.446;2022-08-14T09:41:36;29.10;18.10
52075;DHT22;38075;53.172;5.446;2022-08-14T09:47:13;28.90;18.10
52075;DHT22;38075;53.172;5.446;2022-08-14T09:49:40;29.00;18.00
52075;DHT22;38075;53.172;5.446;2022-08-14T09:54:50;29.30;18.20
52075;DHT22;38075;53.172;5.446;2022-08-14T09:57:25;29.40;17.20
52075;DHT22;38075;53.172;5.446;2022-08-14T09:59:51;29.40;17.10
52075;DHT22;38075;53.172;5.446;2022-08-14T10:02:23;29.50;17.20
52075;DHT22;38075;53.172;5.446;2022-08-14T10:07:32;29.70;16.70
52075;DHT22;38075;53.172;5.446;2022-08-14T10:09:58;29.70;15.20
52075;DHT22;38075;53.172;5.446;2022-08-14T10:12:42;29.80;18.30
52075;DHT22;38075;53.172;5.446;2022-08-14T10:15:16;29.80;15.60
52075;DHT22;38075;53.172;5.446;2022-08-14T10:17:42;30.00;15.40
52075;DHT22;38075;53.172;5.446;2022-08-14T10:20:08;30.10;14.70
52075;DHT22;38075;53.172;5.446;2022-08-14T10:22:35;30.10;14.50
52075;DHT22;38075;53.172;5.446;2022-08-14T10:25:10;30.10;14.50
52075;DHT22;38075;53.172;5.446;2022-08-14T10:27:36;30.30;14.00
52075;DHT22;38075;53.172;5.446;2022-08-14T10:30:02;30.10;13.90
52075;DHT22;38075;53.172;5.446;2022-08-14T10:32:43;30.00;13.60
52075;DHT22;38075;53.172;5.446;2022-08-14T10:35:11;30.30;13.70
52075;DHT22;38075;53.172;5.446;2022-08-14T10:37:47;30.30;13.80
52075;DHT22;38075;53.172;5.446;2022-08-14T10:40:15;30.40;13.40
52075;DHT22;38075;53.172;5.446;2022-08-14T10:42:50;30.20;12.30
52075;DHT22;38075;53.172;5.446;2022-08-14T10:45:21;30.50;12.90
52075;DHT22;38075;53.172;5.446;2022-08-14T10:47:48;30.50;12.70
52075;DHT22;38075;53.172;5.446;2022-08-14T10:50:15;30.50;15.50
52075;DHT22;38075;53.172;5.446;2022-08-14T10:52:42;30.60;13.00
52075;DHT22;38075;53.172;5.446;2022-08-14T10:55:14;30.50;12.00
52075;DHT22;38075;53.172;5.446;2022-08-14T10:58:07;30.50;12.00
52075;DHT22;38075;53.172;5.446;2022-08-14T11:00:38;30.70;13.80
52075;DHT22;38075;53.172;5.446;2022-08-14T11:03:06;30.90;11.70
52075;DHT22;38075;53.172;5.446;2022-08-14T11:05:50;30.90;11.50
52075;DHT22;38075;53.172;5.446;2022-08-14T11:08:17;30.90;11.30
52075;DHT22;38075;53.172;5.446;2022-08-14T11:10:45;31.10;11.30
52075;DHT22;38075;53.172;5.446;2022-08-14T11:13:16;30.90;10.70
52075;DHT22;38075;53.172;5.446;2022-08-14T11:15:43;30.90;9.50
52075;DHT22;38075;53.172;5.446;2022-08-14T11:18:14;30.80;9.60
52075;DHT22;38075;53.172;5.446;2022-08-14T11:20:47;30.80;10.30
52075;DHT22;38075;53.172;5.446;2022-08-14T11:23:14;31.10;9.80
52075;DHT22;38075;53.172;5.446;2022-08-14T11:25:43;31.10;9.80
52075;DHT22;38075;53.172;5.446;2022-08-14T11:28:13;30.80;9.10
52075;DHT22;38075;53.172;5.446;2022-08-14T11:30:41;30.70;8.70
52075;DHT22;38075;53.172;5.446;2022-08-14T11:33:07;30.70;9.30
52075;DHT22;38075;53.172;5.446;2022-08-14T11:35:33;30.90;9.70
52075;DHT22;38075;53.172;5.446;2022-08-14T11:38:01;30.60;9.10
52075;DHT22;38075;53.172;5.446;2022-08-14T11:40:30;30.60;8.60
52075;DHT22;38075;53.172;5.446;2022-08-14T11:42:59;30.60;9.00
52075;DHT22;38075;53.172;5.446;2022-08-14T11:45:28;30.60;8.20
52075;DHT22;38075;53.172;5.446;2022-08-14T11:50:46;30.80;8.90
52075;DHT22;38075;53.172;5.446;2022-08-14T11:56:01;30.70;8.80
52075;DHT22;38075;53.172;5.446;2022-08-14T11:58:32;30.90;9.00
52075;DHT22;38075;53.172;5.446;2022-08-14T12:01:04;30.90;8.20
52075;DHT22;38075;53.172;5.446;2022-08-14T12:03:43;31.00;8.30
52075;DHT22;38075;53.172;5.446;2022-08-14T12:06:19;31.00;8.90
52075;DHT22;38075;53.172;5.446;2022-08-14T12:08:45;31.10;7.90
52075;DHT22;38075;53.172;5.446;2022-08-14T12:11:13;30.90;7.80
52075;DHT22;38075;53.172;5.446;2022-08-14T12:13:41;31.00;8.00
52075;DHT22;38075;53.172;5.446;2022-08-14T12:16:09;30.90;7.70
52075;DHT22;38075;53.172;5.446;2022-08-14T12:18:38;30.60;7.50
52075;DHT22;38075;53.172;5.446;2022-08-14T12:21:24;30.40;7.40
52075;DHT22;38075;53.172;5.446;2022-08-14T12:24:03;30.70;7.60
52075;DHT22;38075;53.172;5.446;2022-08-14T12:26:29;30.60;7.10
52075;DHT22;38075;53.172;5.446;2022-08-14T12:29:13;30.70;7.60
52075;DHT22;38075;53.172;5.446;2022-08-14T12:31:41;31.00;7.80
52075;DHT22;38075;53.172;5.446;2022-08-14T12:34:11;31.00;7.00
52075;DHT22;38075;53.172;5.446;2022-08-14T12:36:39;30.70;7.10
52075;DHT22;38075;53.172;5.446;2022-08-14T12:39:22;31.00;7.60
52075;DHT22;38075;53.172;5.446;2022-08-14T12:41:52;31.10;7.30
52075;DHT22;38075;53.172;5.446;2022-08-14T12:44:35;31.30;8.50
52075;DHT22;38075;53.172;5.446;2022-08-14T12:49:29;31.60;7.30
52075;DHT22;38075;53.172;5.446;2022-08-14T12:51:57;31.60;7.20
52075;DHT22;38075;53.172;5.446;2022-08-14T12:54:23;31.10;5.90
52075;DHT22;38075;53.172;5.446;2022-08-14T12:56:49;30.90;6.30
52075;DHT22;38075;53.172;5.446;2022-08-14T12:59:14;31.10;7.00
52075;DHT22;38075;53.172;5.446;2022-08-14T13:01:41;31.40;7.00
52075;DHT22;38075;53.172;5.446;2022-08-14T13:04:09;31.60;6.20
52075;DHT22;38075;53.172;5.446;2022-08-14T13:06:44;31.90;6.20
52075;DHT22;38075;53.172;5.446;2022-08-14T13:09:13;31.80;5.20
52075;DHT22;38075;53.172;5.446;2022-08-14T13:11:44;31.80;6.00
52075;DHT22;38075;53.172;5.446;2022-08-14T13:14:11;32.20;5.70
52075;DHT22;38075;53.172;5.446;2022-08-14T13:16:41;32.00;4.60
52075;DHT22;38075;53.172;5.446;2022-08-14T13:19:11;32.10;5.20
52075;DHT22;38075;53.172;5.446;2022-08-14T13:21:38;31.80;5.70
52075;DHT22;38075;53.172;5.446;2022-08-14T13:24:04;31.70;5.80
52075;DHT22;38075;53.172;5.446;2022-08-14T13:26:33;31.70;5.50
52075;DHT22;38075;53.172;5.446;2022-08-14T13:29:01;31.60;5.40
52075;DHT22;38075;53.172;5.446;2022-08-14T13:31:29;31.50;3.40
52075;DHT22;38075;53.172;5.446;2022-08-14T13:33:57;31.70;4.40
52075;DHT22;38075;53.172;5.446;2022-08-14T13:36:25;31.40;4.30
52075;DHT22;38075;53.172;5.446;2022-08-14T13:38:52;31.80;4.50
52075;DHT22;38075;53.172;5.446;2022-08-14T13:41:18;31.80;4.20
52075;DHT22;38075;53.172;5.446;2022-08-14T13:43:49;31.90;4.00
52075;DHT22;38075;53.172;5.446;2022-08-14T13:46:16;31.80;4.20
52075;DHT22;38075;53.172;5.446;2022-08-14T13:48:45;31.90;4.40
52075;DHT22;38075;53.172;5.446;2022-08-14T13:51:11;32.10;3.50
52075;DHT22;38075;53.172;5.446;2022-08-14T13:53:48;32.40;3.20
52075;DHT22;38075;53.172;5.446;2022-08-14T13:56:15;32.10;3.00
52075;DHT22;38075;53.172;5.446;2022-08-14T13:58:42;32.10;3.60
52075;DHT22;38075;53.172;5.446;2022-08-14T14:01:11;31.90;3.00
52075;DHT22;38075;53.172;5.446;2022-08-14T14:03:42;31.90;3.10
52075;DHT22;38075;53.172;5.446;2022-08-14T14:06:12;32.20;2.40
52075;DHT22;38075;53.172;5.446;2022-08-14T14:08:44;31.70;2.00
52075;DHT22;38075;53.172;5.446;2022-08-14T14:11:11;31.80;2.80
52075;DHT22;38075;53.172;5.446;2022-08-14T14:13:37;31.70;2.50
52075;DHT22;38075;53.172;5.446;2022-08-14T14:16:08;31.70;2.00
52075;DHT22;38075;53.172;5.446;2022-08-14T14:18:34;31.80;2.50
52075;DHT22;38075;53.172;5.446;2022-08-14T14:21:03;31.50;2.40
52075;DHT22;38075;53.172;5.446;2022-08-14T14:23:33;31.40;2.30
52075;DHT22;38075;53.172;5.446;2022-08-14T14:25:59;31.60;2.80
52075;DHT22;38075;53.172;5.446;2022-08-14T14:28:30;31.50;2.70
52075;DHT22;38075;53.172;5.446;2022-08-14T14:30:56;31.70;2.20
52075;DHT22;38075;53.172;5.446;2022-08-14T14:33:23;31.90;2.20
52075;DHT22;38075;53.172;5.446;2022-08-14T14:35:50;32.00;2.00
52075;DHT22;38075;53.172;5.446;2022-08-14T14:38:16;31.80;1.70
52075;DHT22;38075;53.172;5.446;2022-08-14T14:40:44;31.90;2.60
52075;DHT22;38075;53.172;5.446;2022-08-14T14:43:12;31.80;2.50
52075;DHT22;38075;53.172;5.446;2022-08-14T14:45:39;31.80;2.50
52075;DHT22;38075;53.172;5.446;2022-08-14T14:48:08;32.00;2.70
52075;DHT22;38075;53.172;5.446;2022-08-14T14:50:35;31.90;2.50
52075;DHT22;38075;53.172;5.446;2022-08-14T14:53:05;32.00;2.00
52075;DHT22;38075;53.172;5.446;2022-08-14T14:55:31;32.00;1.50
52075;DHT22;38075;53.172;5.446;2022-08-14T14:57:59;31.90;1.60
52075;DHT22;38075;53.172;5.446;2022-08-14T15:00:25;31.90;1.40
52075;DHT22;38075;53.172;5.446;2022-08-14T15:02:52;31.90;1.40
52075;DHT22;38075;53.172;5.446;2022-08-14T15:05:20;31.80;1.00
52075;DHT22;38075;53.172;5.446;2022-08-14T15:07:48;31.70;1.00
52075;DHT22;38075;53.172;5.446;2022-08-14T15:10:16;31.80;1.00
52075;DHT22;38075;53.172;5.446;2022-08-14T15:12:42;31.90;1.00
52075;DHT22;38075;53.172;5.446;2022-08-14T15:15:12;32.00;3.10
52075;DHT22;38075;53.172;5.446;2022-08-14T15:17:38;32.00;1.00
52075;DHT22;38075;53.172;5.446;2022-08-14T15:20:10;31.80;1.00
52075;DHT22;38075;53.172;5.446;2022-08-14T15:22:37;31.50;1.00
52075;DHT22;38075;53.172;5.446;2022-08-14T15:25:04;31.70;1.00
52075;DHT22;38075;53.172;5.446;2022-08-14T15:27:31;31.80;1.00
52075;DHT22;38075;53.172;5.446;2022-08-14T15:29:59;31.90;1.00
52075;DHT22;38075;53.172;5.446;2022-08-14T15:32:25;31.80;1.00
52075;DHT22;38075;53.172;5.446;2022-08-14T15:34:51;31.70;1.00
52075;DHT22;38075;53.172;5.446;2022-08-14T15:37:17;31.70;1.00
52075;DHT22;38075;53.172;5.446;2022-08-14T15:39:43;31.70;1.00
52075;DHT22;38075;53.172;5.446;2022-08-14T15:42:09;31.70;1.00
52075;DHT22;38075;53.172;5.446;2022-08-14T15:44:35;31.80;1.00
52075;DHT22;38075;53.172;5.446;2022-08-14T15:47:01;31.80;1.00
52075;DHT22;38075;53.172;5.446;2022-08-14T15:49:31;31.60;1.00
52075;DHT22;38075;53.172;5.446;2022-08-14T15:51:56;31.50;1.00
52075;DHT22;38075;53.172;5.446;2022-08-14T15:54:24;31.30;1.00
52075;DHT22;38075;53.172;5.446;2022-08-14T15:57:04;31.20;1.00
52075;DHT22;38075;53.172;5.446;2022-08-14T15:59:32;31.10;1.00
52075;DHT22;38075;53.172;5.446;2022-08-14T16:02:36;31.10;1.00
52075;DHT22;38075;53.172;5.446;2022-08-14T16:05:02;31.10;1.00
52075;DHT22;38075;53.172;5.446;2022-08-14T16:07:27;31.00;1.00
52075;DHT22;38075;53.172;5.446;2022-08-14T16:09:54;31.00;1.00
52075;DHT22;38075;53.172;5.446;2022-08-14T16:12:19;31.00;1.00